sensor_id;sensor_type;location;lat;lon;timestamp;P1;durP1;ratioP1;P2;durP2;ratioP2
62574;SDS011;76945;45.630;11.704;2024-03-02T00:02:01;12.88;;;3.40;;
62574;SDS011;76945;45.630;11.704;2024-03-02T00:04:27;14.82;;;3.85;;
62574;SDS011;76945;45.630;11.704;2024-03-02T00:06:52;10.10;;;3.83;;
62574;SDS011;76945;45.630;11.704;2024-03-02T00:09:19;12.75;;;4.00;;
62574;SDS011;76945;45.630;11.704;2024-03-02T00:11:45;13.57;;;4.13;;
62574;SDS011;76945;45.630;11.704;2024-03-02T00:14:11;13.00;;;3.80;;
62574;SDS011;76945;45.630;11.704;2024-03-02T00:16:37;11.05;;;4.45;;
62574;SDS011;76945;45.630;11.704;2024-03-02T00:19:03;8.63;;;3.85;;
62574;SDS011;76945;45.630;11.704;2024-03-02T00:21:31;11.27;;;4.00;;
62574;SDS011;76945;45.630;11.704;2024-03-02T00:23:57;6.85;;;3.63;;
62574;SDS011;76945;45.630;11.704;2024-03-02T00:26:23;12.13;;;5.78;;
62574;SDS011;76945;45.630;11.704;2024-03-02T00:28:48;12.02;;;4.40;;
62574;SDS011;76945;45.630;11.704;2024-03-02T00:31:15;9.35;;;3.80;;
62574;SDS011;76945;45.630;11.704;2024-03-02T00:33:45;8.07;;;3.70;;
62574;SDS011;76945;45.630;11.704;2024-03-02T00:36:15;9.20;;;4.13;;
62574;SDS011;76945;45.630;11.704;2024-03-02T00:38:52;10.45;;;4.43;;
62574;SDS011;76945;45.630;11.704;2024-03-02T00:44:00;10.05;;;4.13;;
62574;SDS011;76945;45.630;11.704;2024-03-02T00:46:38;12.40;;;5.90;;
62574;SDS011;76945;45.630;11.704;2024-03-02T00:49:05;10.70;;;5.22;;
62574;SDS011;76945;45.630;11.704;2024-03-02T00:51:37;12.88;;;5.22;;
62574;SDS011;76945;45.630;11.704;2024-03-02T00:54:04;16.65;;;6.03;;
62574;SDS011;76945;45.630;11.704;2024-03-02T00:56:33;15.85;;;6.53;;
62574;SDS011;76945;45.630;11.704;2024-03-02T00:58:59;15.45;;;6.63;;
62574;SDS011;76945;45.630;11.704;2024-03-02T01:01:25;11.30;;;4.93;;
62574;SDS011;76945;45.630;11.704;2024-03-02T01:03:51;13.75;;;4.88;;
62574;SDS011;76945;45.630;11.704;2024-03-02T01:06:17;10.90;;;4.20;;
62574;SDS011;76945;45.630;11.704;2024-03-02T01:08:43;8.10;;;4.00;;
62574;SDS011;76945;45.630;11.704;2024-03-02T01:11:09;10.10;;;4.20;;
62574;SDS011;76945;45.630;11.704;2024-03-02T01:13:35;11.45;;;4.00;;
62574;SDS011;76945;45.630;11.704;2024-03-02T01:16:01;10.05;;;3.60;;
62574;SDS011;76945;45.630;11.704;2024-03-02T01:18:27;11.63;;;3.95;;
62574;SDS011;76945;45.630;11.704;2024-03-02T01:20:53;10.15;;;3.40;;
62574;SDS011;76945;45.630;11.704;2024-03-02T01:23:23;12.60;;;3.53;;
62574;SDS011;76945;45.630;11.704;2024-03-02T01:25:50;12.90;;;3.30;;
62574;SDS011;76945;45.630;11.704;2024-03-02T01:28:17;14.98;;;3.78;;
62574;SDS011;76945;45.630;11.704;2024-03-02T01:30:43;8.80;;;3.58;;
62574;SDS011;76945;45.630;11.704;2024-03-02T01:33:09;9.30;;;3.33;;
62574;SDS011;76945;45.630;11.704;2024-03-02T01:35:35;10.38;;;3.38;;
62574;SDS011;76945;45.630;11.704;2024-03-02T01:38:02;13.23;;;4.22;;
62574;SDS011;76945;45.630;11.704;2024-03-02T01:40:28;10.65;;;3.47;;
62574;SDS011;76945;45.630;11.704;2024-03-02T01:42:54;7.57;;;3.42;;
62574;SDS011;76945;45.630;11.704;2024-03-02T01:45:20;11.15;;;3.78;;
62574;SDS011;76945;45.630;11.704;2024-03-02T01:47:46;10.77;;;4.20;;
62574;SDS011;76945;45.630;11.704;2024-03-02T01:50:12;9.65;;;3.72;;
62574;SDS011;76945;45.630;11.704;2024-03-02T01:52:39;6.38;;;3.42;;
62574;SDS011;76945;45.630;11.704;2024-03-02T01:55:06;14.93;;;4.00;;
62574;SDS011;76945;45.630;11.704;2024-03-02T01:57:32;11.05;;;3.80;;
62574;SDS011;76945;45.630;11.704;2024-03-02T01:59:59;12.73;;;4.18;;
62574;SDS011;76945;45.630;11.704;2024-03-02T02:02:25;12.02;;;4.78;;
62574;SDS011;76945;45.630;11.704;2024-03-02T02:04:51;11.95;;;4.30;;
62574;SDS011;76945;45.630;11.704;2024-03-02T02:07:16;10.48;;;4.47;;
62574;SDS011;76945;45.630;11.704;2024-03-02T02:09:42;8.20;;;3.53;;
62574;SDS011;76945;45.630;11.704;2024-03-02T02:12:09;9.55;;;3.35;;
62574;SDS011;76945;45.630;11.704;2024-03-02T02:14:35;11.55;;;3.60;;
62574;SDS011;76945;45.630;11.704;2024-03-02T02:17:01;13.40;;;3.58;;
62574;SDS011;76945;45.630;11.704;2024-03-02T02:19:26;13.02;;;3.95;;
62574;SDS011;76945;45.630;11.704;2024-03-02T02:21:52;11.52;;;3.42;;
62574;SDS011;76945;45.630;11.704;2024-03-02T02:24:18;9.55;;;3.15;;
62574;SDS011;76945;45.630;11.704;2024-03-02T02:26:43;7.03;;;3.13;;
62574;SDS011;76945;45.630;11.704;2024-03-02T02:29:09;7.60;;;3.33;;
62574;SDS011;76945;45.630;11.704;2024-03-02T02:31:38;9.07;;;3.17;;
62574;SDS011;76945;45.630;11.704;2024-03-02T02:34:05;8.38;;;2.80;;
62574;SDS011;76945;45.630;11.704;2024-03-02T02:36:31;9.27;;;3.10;;
62574;SDS011;76945;45.630;11.704;2024-03-02T02:39:02;7.07;;;2.42;;
62574;SDS011;76945;45.630;11.704;2024-03-02T02:41:29;5.72;;;2.70;;
62574;SDS011;76945;45.630;11.704;2024-03-02T02:43:55;6.13;;;2.45;;
62574;SDS011;76945;45.630;11.704;2024-03-02T02:46:21;5.65;;;2.50;;
62574;SDS011;76945;45.630;11.704;2024-03-02T02:48:47;6.32;;;2.60;;
62574;SDS011;76945;45.630;11.704;2024-03-02T02:51:12;11.23;;;2.85;;
62574;SDS011;76945;45.630;11.704;2024-03-02T02:53:38;6.70;;;2.97;;
62574;SDS011;76945;45.630;11.704;2024-03-02T02:56:06;6.70;;;2.25;;
62574;SDS011;76945;45.630;11.704;2024-03-02T02:58:32;4.20;;;2.25;;
62574;SDS011;76945;45.630;11.704;2024-03-02T03:00:58;7.43;;;2.40;;
62574;SDS011;76945;45.630;11.704;2024-03-02T03:03:23;8.23;;;2.60;;
62574;SDS011;76945;45.630;11.704;2024-03-02T03:05:49;9.10;;;3.15;;
62574;SDS011;76945;45.630;11.704;2024-03-02T03:08:15;10.95;;;2.72;;
62574;SDS011;76945;45.630;11.704;2024-03-02T03:10:43;9.27;;;2.70;;
62574;SDS011;76945;45.630;11.704;2024-03-02T03:13:09;8.02;;;2.65;;
62574;SDS011;76945;45.630;11.704;2024-03-02T03:15:35;12.85;;;2.90;;
62574;SDS011;76945;45.630;11.704;2024-03-02T03:18:04;9.43;;;3.13;;
62574;SDS011;76945;45.630;11.704;2024-03-02T03:20:30;9.43;;;2.80;;
62574;SDS011;76945;45.630;11.704;2024-03-02T03:22:59;7.47;;;2.83;;
62574;SDS011;76945;45.630;11.704;2024-03-02T03:25:24;7.72;;;2.90;;
62574;SDS011;76945;45.630;11.704;2024-03-02T03:27:50;6.43;;;2.63;;
62574;SDS011;76945;45.630;11.704;2024-03-02T03:30:18;9.27;;;2.85;;
62574;SDS011;76945;45.630;11.704;2024-03-02T03:32:44;8.70;;;3.13;;
62574;SDS011;76945;45.630;11.704;2024-03-02T03:35:10;5.75;;;2.90;;
62574;SDS011;76945;45.630;11.704;2024-03-02T03:37:37;5.05;;;2.40;;
62574;SDS011;76945;45.630;11.704;2024-03-02T03:40:03;6.60;;;2.63;;
62574;SDS011;76945;45.630;11.704;2024-03-02T03:45:00;9.85;;;3.35;;
62574;SDS011;76945;45.630;11.704;2024-03-02T03:47:26;5.68;;;2.83;;
62574;SDS011;76945;45.630;11.704;2024-03-02T03:49:52;7.05;;;3.38;;
62574;SDS011;76945;45.630;11.704;2024-03-02T03:52:17;15.90;;;7.13;;
62574;SDS011;76945;45.630;11.704;2024-03-02T03:54:43;10.85;;;5.70;;
62574;SDS011;76945;45.630;11.704;2024-03-02T03:57:09;11.65;;;5.85;;
62574;SDS011;76945;45.630;11.704;2024-03-02T03:59:35;10.23;;;4.70;;
62574;SDS011;76945;45.630;11.704;2024-03-02T04:02:02;8.27;;;4.20;;
62574;SDS011;76945;45.630;11.704;2024-03-02T04:04:28;10.68;;;4.30;;
62574;SDS011;76945;45.630;11.704;2024-03-02T04:06:54;8.35;;;3.25;;
62574;SDS011;76945;45.630;11.704;2024-03-02T04:09:19;7.80;;;3.13;;
62574;SDS011;76945;45.630;11.704;2024-03-02T04:11:45;7.90;;;2.83;;
62574;SDS011;76945;45.630;11.704;2024-03-02T04:14:11;6.88;;;2.83;;
62574;SDS011;76945;45.630;11.704;2024-03-02T04:16:37;8.95;;;3.80;;
62574;SDS011;76945;45.630;11.704;2024-03-02T04:19:04;8.45;;;3.45;;
62574;SDS011;76945;45.630;11.704;2024-03-02T04:21:29;8.70;;;3.72;;
62574;SDS011;76945;45.630;11.704;2024-03-02T04:23:55;8.00;;;2.75;;
62574;SDS011;76945;45.630;11.704;2024-03-02T04:26:24;13.82;;;3.30;;
62574;SDS011;76945;45.630;11.704;2024-03-02T04:28:50;11.00;;;3.90;;
62574;SDS011;76945;45.630;11.704;2024-03-02T04:31:16;7.70;;;3.20;;
62574;SDS011;76945;45.630;11.704;2024-03-02T04:33:42;7.60;;;3.45;;
62574;SDS011;76945;45.630;11.704;2024-03-02T04:36:08;9.65;;;3.10;;
62574;SDS011;76945;45.630;11.704;2024-03-02T04:38:37;8.30;;;3.35;;
62574;SDS011;76945;45.630;11.704;2024-03-02T04:41:04;7.00;;;3.22;;
62574;SDS011;76945;45.630;11.704;2024-03-02T04:43:33;8.73;;;3.40;;
62574;SDS011;76945;45.630;11.704;2024-03-02T04:45:59;10.35;;;4.00;;
62574;SDS011;76945;45.630;11.704;2024-03-02T04:48:25;9.38;;;3.45;;
62574;SDS011;76945;45.630;11.704;2024-03-02T04:50:51;7.32;;;2.78;;
62574;SDS011;76945;45.630;11.704;2024-03-02T04:53:17;10.75;;;3.75;;
62574;SDS011;76945;45.630;11.704;2024-03-02T04:55:42;5.47;;;3.00;;
62574;SDS011;76945;45.630;11.704;2024-03-02T04:58:08;9.00;;;3.40;;
62574;SDS011;76945;45.630;11.704;2024-03-02T05:00:34;6.00;;;2.90;;
62574;SDS011;76945;45.630;11.704;2024-03-02T05:03:00;12.20;;;3.30;;
62574;SDS011;76945;45.630;11.704;2024-03-02T05:05:26;6.00;;;2.78;;
62574;SDS011;76945;45.630;11.704;2024-03-02T05:07:52;11.05;;;3.20;;
62574;SDS011;76945;45.630;11.704;2024-03-02T05:10:18;7.15;;;3.15;;
62574;SDS011;76945;45.630;11.704;2024-03-02T05:12:43;6.18;;;2.70;;
62574;SDS011;76945;45.630;11.704;2024-03-02T05:15:09;7.82;;;3.17;;
62574;SDS011;76945;45.630;11.704;2024-03-02T05:17:39;8.55;;;3.10;;
62574;SDS011;76945;45.630;11.704;2024-03-02T05:20:08;6.22;;;3.03;;
62574;SDS011;76945;45.630;11.704;2024-03-02T05:22:34;10.88;;;3.50;;
62574;SDS011;76945;45.630;11.704;2024-03-02T05:25:01;14.35;;;7.18;;
62574;SDS011;76945;45.630;11.704;2024-03-02T05:27:27;10.57;;;5.60;;
62574;SDS011;76945;45.630;11.704;2024-03-02T05:29:53;11.50;;;4.88;;
62574;SDS011;76945;45.630;11.704;2024-03-02T05:32:18;13.32;;;4.07;;
62574;SDS011;76945;45.630;11.704;2024-03-02T05:34:44;7.55;;;3.83;;
62574;SDS011;76945;45.630;11.704;2024-03-02T05:37:10;8.85;;;3.97;;
62574;SDS011;76945;45.630;11.704;2024-03-02T05:39:36;14.10;;;3.85;;
62574;SDS011;76945;45.630;11.704;2024-03-02T05:42:01;8.63;;;3.70;;
62574;SDS011;76945;45.630;11.704;2024-03-02T05:44:28;9.95;;;4.13;;
62574;SDS011;76945;45.630;11.704;2024-03-02T05:46:54;9.38;;;3.70;;
62574;SDS011;76945;45.630;11.704;2024-03-02T05:49:20;7.63;;;3.95;;
62574;SDS011;76945;45.630;11.704;2024-03-02T05:51:45;10.55;;;3.95;;
62574;SDS011;76945;45.630;11.704;2024-03-02T05:54:11;14.88;;;7.18;;
62574;SDS011;76945;45.630;11.704;2024-03-02T05:56:37;9.07;;;3.88;;
62574;SDS011;76945;45.630;11.704;2024-03-02T05:59:02;11.07;;;3.95;;
62574;SDS011;76945;45.630;11.704;2024-03-02T06:01:44;10.02;;;3.92;;
62574;SDS011;76945;45.630;11.704;2024-03-02T06:04:11;14.45;;;5.80;;
62574;SDS011;76945;45.630;11.704;2024-03-02T06:06:37;17.52;;;7.28;;
62574;SDS011;76945;45.630;11.704;2024-03-02T06:09:04;15.77;;;7.70;;
62574;SDS011;76945;45.630;11.704;2024-03-02T06:11:36;17.50;;;10.07;;
62574;SDS011;76945;45.630;11.704;2024-03-02T06:14:03;18.35;;;9.95;;
62574;SDS011;76945;45.630;11.704;2024-03-02T06:16:29;13.82;;;5.72;;
62574;SDS011;76945;45.630;11.704;2024-03-02T06:18:57;11.88;;;5.43;;
62574;SDS011;76945;45.630;11.704;2024-03-02T06:21:23;9.07;;;4.53;;
62574;SDS011;76945;45.630;11.704;2024-03-02T06:23:49;11.35;;;4.78;;
62574;SDS011;76945;45.630;11.704;2024-03-02T06:26:15;8.88;;;4.40;;
62574;SDS011;76945;45.630;11.704;2024-03-02T06:28:41;7.18;;;3.80;;
62574;SDS011;76945;45.630;11.704;2024-03-02T06:31:06;12.52;;;5.38;;
62574;SDS011;76945;45.630;11.704;2024-03-02T06:33:32;10.25;;;5.28;;
62574;SDS011;76945;45.630;11.704;2024-03-02T06:35:58;13.23;;;4.85;;
62574;SDS011;76945;45.630;11.704;2024-03-02T06:38:23;11.23;;;5.43;;
62574;SDS011;76945;45.630;11.704;2024-03-02T06:40:49;13.20;;;6.25;;
62574;SDS011;76945;45.630;11.704;2024-03-02T06:43:14;16.00;;;7.85;;
62574;SDS011;76945;45.630;11.704;2024-03-02T06:45:40;11.27;;;6.00;;
62574;SDS011;76945;45.630;11.704;2024-03-02T06:48:06;9.93;;;5.45;;
62574;SDS011;76945;45.630;11.704;2024-03-02T06:50:32;13.88;;;5.65;;
62574;SDS011;76945;45.630;11.704;2024-03-02T06:52:58;15.20;;;6.72;;
62574;SDS011;76945;45.630;11.704;2024-03-02T06:55:23;13.95;;;6.90;;
62574;SDS011;76945;45.630;11.704;2024-03-02T06:57:52;14.43;;;8.00;;
62574;SDS011;76945;45.630;11.704;2024-03-02T07:00:18;14.32;;;7.20;;
62574;SDS011;76945;45.630;11.704;2024-03-02T07:02:45;12.70;;;6.10;;
62574;SDS011;76945;45.630;11.704;2024-03-02T07:05:11;10.75;;;5.70;;
62574;SDS011;76945;45.630;11.704;2024-03-02T07:07:37;12.20;;;7.95;;
62574;SDS011;76945;45.630;11.704;2024-03-02T07:10:06;11.57;;;5.65;;
62574;SDS011;76945;45.630;11.704;2024-03-02T07:12:35;10.35;;;5.00;;
62574;SDS011;76945;45.630;11.704;2024-03-02T07:15:01;10.90;;;4.93;;
62574;SDS011;76945;45.630;11.704;2024-03-02T07:17:27;14.32;;;4.88;;
62574;SDS011;76945;45.630;11.704;2024-03-02T07:19:53;8.05;;;4.68;;
62574;SDS011;76945;45.630;11.704;2024-03-02T07:22:19;9.05;;;4.18;;
62574;SDS011;76945;45.630;11.704;2024-03-02T07:24:44;10.73;;;4.35;;
62574;SDS011;76945;45.630;11.704;2024-03-02T07:27:13;11.45;;;4.28;;
62574;SDS011;76945;45.630;11.704;2024-03-02T07:29:39;8.52;;;4.60;;
62574;SDS011;76945;45.630;11.704;2024-03-02T07:32:05;9.38;;;4.72;;
62574;SDS011;76945;45.630;11.704;2024-03-02T07:34:32;10.77;;;4.10;;
62574;SDS011;76945;45.630;11.704;2024-03-02T07:36:57;8.18;;;3.58;;
62574;SDS011;76945;45.630;11.704;2024-03-02T07:39:23;7.78;;;3.60;;
62574;SDS011;76945;45.630;11.704;2024-03-02T07:41:49;6.88;;;3.53;;
62574;SDS011;76945;45.630;11.704;2024-03-02T07:44:15;7.28;;;3.30;;
62574;SDS011;76945;45.630;11.704;2024-03-02T07:46:41;10.63;;;3.90;;
62574;SDS011;76945;45.630;11.704;2024-03-02T07:49:08;11.15;;;3.90;;
62574;SDS011;76945;45.630;11.704;2024-03-02T07:51:34;8.13;;;4.07;;
62574;SDS011;76945;45.630;11.704;2024-03-02T07:54:00;6.72;;;3.63;;
62574;SDS011;76945;45.630;11.704;2024-03-02T07:56:25;7.35;;;3.90;;
62574;SDS011;76945;45.630;11.704;2024-03-02T07:58:51;9.02;;;4.10;;
62574;SDS011;76945;45.630;11.704;2024-03-02T08:01:17;9.73;;;4.45;;
62574;SDS011;76945;45.630;11.704;2024-03-02T08:03:43;11.45;;;4.47;;
62574;SDS011;76945;45.630;11.704;2024-03-02T08:06:16;8.65;;;4.20;;
62574;SDS011;76945;45.630;11.704;2024-03-02T08:08:42;9.88;;;4.50;;
62574;SDS011;76945;45.630;11.704;2024-03-02T08:11:08;9.35;;;4.28;;
62574;SDS011;76945;45.630;11.704;2024-03-02T08:13:34;9.57;;;4.20;;
62574;SDS011;76945;45.630;11.704;2024-03-02T08:16:00;7.07;;;4.28;;
62574;SDS011;76945;45.630;11.704;2024-03-02T08:18:28;8.07;;;4.50;;
62574;SDS011;76945;45.630;11.704;2024-03-02T08:20:54;10.30;;;4.25;;
62574;SDS011;76945;45.630;11.704;2024-03-02T08:23:20;8.85;;;4.32;;
62574;SDS011;76945;45.630;11.704;2024-03-02T08:25:45;8.18;;;4.00;;
62574;SDS011;76945;45.630;11.704;2024-03-02T08:28:12;8.55;;;3.75;;
62574;SDS011;76945;45.630;11.704;2024-03-02T08:30:37;9.35;;;4.63;;
62574;SDS011;76945;45.630;11.704;2024-03-02T08:33:03;26.15;;;10.27;;
62574;SDS011;76945;45.630;11.704;2024-03-02T08:37:58;8.15;;;3.75;;
62574;SDS011;76945;45.630;11.704;2024-03-02T08:40:24;10.88;;;5.15;;
62574;SDS011;76945;45.630;11.704;2024-03-02T08:42:49;8.80;;;4.00;;
62574;SDS011;76945;45.630;11.704;2024-03-02T08:45:15;8.70;;;3.92;;
62574;SDS011;76945;45.630;11.704;2024-03-02T08:47:41;8.10;;;4.22;;
62574;SDS011;76945;45.630;11.704;2024-03-02T08:50:07;7.93;;;4.03;;
62574;SDS011;76945;45.630;11.704;2024-03-02T08:52:33;10.10;;;3.92;;
62574;SDS011;76945;45.630;11.704;2024-03-02T08:54:59;9.63;;;3.70;;
62574;SDS011;76945;45.630;11.704;2024-03-02T08:57:25;8.73;;;4.85;;
62574;SDS011;76945;45.630;11.704;2024-03-02T08:59:50;10.55;;;4.25;;
62574;SDS011;76945;45.630;11.704;2024-03-02T09:02:16;7.30;;;4.35;;
62574;SDS011;76945;45.630;11.704;2024-03-02T09:04:42;8.88;;;3.63;;
62574;SDS011;76945;45.630;11.704;2024-03-02T09:07:07;7.05;;;3.63;;
62574;SDS011;76945;45.630;11.704;2024-03-02T09:09:33;7.68;;;3.75;;
62574;SDS011;76945;45.630;11.704;2024-03-02T09:11:58;8.18;;;4.03;;
62574;SDS011;76945;45.630;11.704;2024-03-02T09:14:24;7.80;;;3.45;;
62574;SDS011;76945;45.630;11.704;2024-03-02T09:16:50;6.78;;;3.40;;
62574;SDS011;76945;45.630;11.704;2024-03-02T09:19:15;5.93;;;3.55;;
62574;SDS011;76945;45.630;11.704;2024-03-02T09:21:41;6.82;;;3.85;;
62574;SDS011;76945;45.630;11.704;2024-03-02T09:24:09;8.57;;;3.97;;
62574;SDS011;76945;45.630;11.704;2024-03-02T09:26:35;7.05;;;3.70;;
62574;SDS011;76945;45.630;11.704;2024-03-02T09:29:01;10.40;;;4.32;;
62574;SDS011;76945;45.630;11.704;2024-03-02T09:31:26;8.88;;;4.10;;
62574;SDS011;76945;45.630;11.704;2024-03-02T09:33:52;6.07;;;3.78;;
62574;SDS011;76945;45.630;11.704;2024-03-02T09:36:21;6.53;;;3.80;;
62574;SDS011;76945;45.630;11.704;2024-03-02T09:38:47;6.43;;;3.47;;
62574;SDS011;76945;45.630;11.704;2024-03-02T09:41:13;12.05;;;4.28;;
62574;SDS011;76945;45.630;11.704;2024-03-02T09:43:40;5.50;;;3.15;;
62574;SDS011;76945;45.630;11.704;2024-03-02T09:46:06;6.90;;;3.10;;
62574;SDS011;76945;45.630;11.704;2024-03-02T09:48:34;6.97;;;3.47;;
62574;SDS011;76945;45.630;11.704;2024-03-02T09:51:00;6.97;;;3.20;;
62574;SDS011;76945;45.630;11.704;2024-03-02T09:53:29;5.20;;;2.88;;
62574;SDS011;76945;45.630;11.704;2024-03-02T09:55:57;7.25;;;3.08;;
62574;SDS011;76945;45.630;11.704;2024-03-02T09:58:23;7.22;;;3.30;;
62574;SDS011;76945;45.630;11.704;2024-03-02T10:00:49;7.43;;;3.78;;
62574;SDS011;76945;45.630;11.704;2024-03-02T10:03:14;6.90;;;3.60;;
62574;SDS011;76945;45.630;11.704;2024-03-02T10:05:42;7.57;;;3.42;;
62574;SDS011;76945;45.630;11.704;2024-03-02T10:08:07;7.22;;;3.53;;
62574;SDS011;76945;45.630;11.704;2024-03-02T10:13:08;9.88;;;3.92;;
62574;SDS011;76945;45.630;11.704;2024-03-02T10:15:35;9.60;;;4.10;;
62574;SDS011;76945;45.630;11.704;2024-03-02T10:18:06;8.80;;;4.60;;
62574;SDS011;76945;45.630;11.704;2024-03-02T10:23:13;10.05;;;4.60;;
62574;SDS011;76945;45.630;11.704;2024-03-02T10:25:40;9.98;;;4.93;;
62574;SDS011;76945;45.630;11.704;2024-03-02T10:28:06;8.75;;;4.07;;
62574;SDS011;76945;45.630;11.704;2024-03-02T10:30:33;9.32;;;4.70;;
62574;SDS011;76945;45.630;11.704;2024-03-02T10:32:59;10.65;;;4.68;;
62574;SDS011;76945;45.630;11.704;2024-03-02T10:35:27;8.05;;;4.47;;
62574;SDS011;76945;45.630;11.704;2024-03-02T10:37:53;9.88;;;4.82;;
62574;SDS011;76945;45.630;11.704;2024-03-02T10:40:21;9.63;;;4.60;;
62574;SDS011;76945;45.630;11.704;2024-03-02T10:42:48;11.25;;;4.40;;
62574;SDS011;76945;45.630;11.704;2024-03-02T10:45:16;9.15;;;4.10;;
62574;SDS011;76945;45.630;11.704;2024-03-02T10:47:43;10.13;;;4.97;;
62574;SDS011;76945;45.630;11.704;2024-03-02T10:50:11;10.68;;;4.90;;
62574;SDS011;76945;45.630;11.704;2024-03-02T10:52:37;7.63;;;4.05;;
62574;SDS011;76945;45.630;11.704;2024-03-02T10:55:07;7.20;;;4.22;;
62574;SDS011;76945;45.630;11.704;2024-03-02T11:00:07;7.22;;;4.20;;
62574;SDS011;76945;45.630;11.704;2024-03-02T11:05:09;10.75;;;5.25;;
62574;SDS011;76945;45.630;11.704;2024-03-02T11:07:37;8.38;;;5.00;;
62574;SDS011;76945;45.630;11.704;2024-03-02T11:10:03;7.88;;;4.88;;
62574;SDS011;76945;45.630;11.704;2024-03-02T11:12:38;7.40;;;4.72;;
62574;SDS011;76945;45.630;11.704;2024-03-02T11:15:09;9.38;;;4.25;;
62574;SDS011;76945;45.630;11.704;2024-03-02T11:17:36;8.77;;;4.60;;
62574;SDS011;76945;45.630;11.704;2024-03-02T11:20:05;8.38;;;4.60;;
62574;SDS011;76945;45.630;11.704;2024-03-02T11:22:34;6.57;;;4.47;;
62574;SDS011;76945;45.630;11.704;2024-03-02T11:25:01;7.35;;;4.68;;
62574;SDS011;76945;45.630;11.704;2024-03-02T11:33:05;9.35;;;5.30;;
62574;SDS011;76945;45.630;11.704;2024-03-02T11:35:37;9.98;;;5.95;;
62574;SDS011;76945;45.630;11.704;2024-03-02T11:38:06;12.77;;;5.57;;
62574;SDS011;76945;45.630;11.704;2024-03-02T11:40:32;9.60;;;5.13;;
62574;SDS011;76945;45.630;11.704;2024-03-02T11:43:00;12.60;;;5.70;;
62574;SDS011;76945;45.630;11.704;2024-03-02T11:45:26;8.40;;;5.20;;
62574;SDS011;76945;45.630;11.704;2024-03-02T11:47:59;9.98;;;5.70;;
62574;SDS011;76945;45.630;11.704;2024-03-02T11:50:29;8.80;;;5.57;;
62574;SDS011;76945;45.630;11.704;2024-03-02T11:52:55;9.70;;;4.70;;
62574;SDS011;76945;45.630;11.704;2024-03-02T11:55:21;8.90;;;5.00;;
62574;SDS011;76945;45.630;11.704;2024-03-02T11:57:49;10.55;;;5.47;;
62574;SDS011;76945;45.630;11.704;2024-03-02T12:00:17;8.75;;;5.22;;
62574;SDS011;76945;45.630;11.704;2024-03-02T12:02:43;9.90;;;5.72;;
62574;SDS011;76945;45.630;11.704;2024-03-02T12:05:14;8.27;;;4.70;;
62574;SDS011;76945;45.630;11.704;2024-03-02T12:07:41;7.68;;;5.07;;
62574;SDS011;76945;45.630;11.704;2024-03-02T12:10:08;8.27;;;4.85;;
62574;SDS011;76945;45.630;11.704;2024-03-02T12:12:34;8.52;;;5.05;;
62574;SDS011;76945;45.630;11.704;2024-03-02T12:15:00;9.98;;;5.38;;
62574;SDS011;76945;45.630;11.704;2024-03-02T12:17:25;9.35;;;5.00;;
62574;SDS011;76945;45.630;11.704;2024-03-02T12:19:51;8.60;;;5.18;;
62574;SDS011;76945;45.630;11.704;2024-03-02T12:22:17;8.75;;;4.75;;
62574;SDS011;76945;45.630;11.704;2024-03-02T12:24:43;10.13;;;5.20;;
62574;SDS011;76945;45.630;11.704;2024-03-02T12:27:12;10.80;;;4.90;;
62574;SDS011;76945;45.630;11.704;2024-03-02T12:29:40;11.18;;;4.88;;
62574;SDS011;76945;45.630;11.704;2024-03-02T12:32:06;8.68;;;4.65;;
62574;SDS011;76945;45.630;11.704;2024-03-02T12:34:32;7.60;;;4.95;;
62574;SDS011;76945;45.630;11.704;2024-03-02T12:36:58;10.38;;;5.88;;
62574;SDS011;76945;45.630;11.704;2024-03-02T12:39:23;9.18;;;5.40;;
62574;SDS011;76945;45.630;11.704;2024-03-02T12:41:49;8.85;;;5.70;;
62574;SDS011;76945;45.630;11.704;2024-03-02T12:44:16;9.13;;;5.50;;
62574;SDS011;76945;45.630;11.704;2024-03-02T12:46:43;10.35;;;4.70;;
62574;SDS011;76945;45.630;11.704;2024-03-02T12:49:09;8.55;;;5.55;;
62574;SDS011;76945;45.630;11.704;2024-03-02T12:51:37;8.90;;;4.78;;
62574;SDS011;76945;45.630;11.704;2024-03-02T12:54:05;10.75;;;5.50;;
62574;SDS011;76945;45.630;11.704;2024-03-02T12:56:35;9.25;;;4.88;;
62574;SDS011;76945;45.630;11.704;2024-03-02T12:59:01;9.95;;;4.15;;
62574;SDS011;76945;45.630;11.704;2024-03-02T13:01:27;7.28;;;4.38;;
62574;SDS011;76945;45.630;11.704;2024-03-02T13:03:53;7.90;;;4.75;;
62574;SDS011;76945;45.630;11.704;2024-03-02T13:06:22;6.97;;;4.05;;
62574;SDS011;76945;45.630;11.704;2024-03-02T13:08:48;7.35;;;4.13;;
62574;SDS011;76945;45.630;11.704;2024-03-02T13:11:15;8.85;;;4.32;;
62574;SDS011;76945;45.630;11.704;2024-03-02T13:13:42;6.53;;;4.57;;
62574;SDS011;76945;45.630;11.704;2024-03-02T13:16:08;6.88;;;4.40;;
62574;SDS011;76945;45.630;11.704;2024-03-02T13:18:35;7.80;;;4.53;;
62574;SDS011;76945;45.630;11.704;2024-03-02T13:21:01;8.98;;;4.70;;
62574;SDS011;76945;45.630;11.704;2024-03-02T13:23:27;10.15;;;5.05;;
62574;SDS011;76945;45.630;11.704;2024-03-02T13:25:55;10.77;;;5.18;;
62574;SDS011;76945;45.630;11.704;2024-03-02T13:28:27;9.43;;;5.10;;
62574;SDS011;76945;45.630;11.704;2024-03-02T13:30:53;8.43;;;4.65;;
62574;SDS011;76945;45.630;11.704;2024-03-02T13:33:19;8.82;;;4.10;;
62574;SDS011;76945;45.630;11.704;2024-03-02T13:35:47;6.18;;;3.53;;
62574;SDS011;76945;45.630;11.704;2024-03-02T13:38:15;5.95;;;3.05;;
62574;SDS011;76945;45.630;11.704;2024-03-02T13:40:44;4.82;;;3.10;;
62574;SDS011;76945;45.630;11.704;2024-03-02T13:43:10;5.43;;;3.20;;
62574;SDS011;76945;45.630;11.704;2024-03-02T13:45:37;4.72;;;2.90;;
62574;SDS011;76945;45.630;11.704;2024-03-02T13:48:03;3.55;;;2.78;;
62574;SDS011;76945;45.630;11.704;2024-03-02T13:50:30;5.88;;;3.10;;
62574;SDS011;76945;45.630;11.704;2024-03-02T13:52:56;4.22;;;2.30;;
62574;SDS011;76945;45.630;11.704;2024-03-02T13:55:22;4.07;;;2.65;;
62574;SDS011;76945;45.630;11.704;2024-03-02T13:57:47;4.38;;;3.00;;
62574;SDS011;76945;45.630;11.704;2024-03-02T14:00:15;5.20;;;3.30;;
62574;SDS011;76945;45.630;11.704;2024-03-02T14:02:45;6.55;;;3.20;;
62574;SDS011;76945;45.630;11.704;2024-03-02T14:05:11;5.53;;;3.33;;
62574;SDS011;76945;45.630;11.704;2024-03-02T14:07:37;6.22;;;3.33;;
62574;SDS011;76945;45.630;11.704;2024-03-02T14:10:03;6.45;;;3.50;;
62574;SDS011;76945;45.630;11.704;2024-03-02T14:12:29;8.73;;;5.03;;
62574;SDS011;76945;45.630;11.704;2024-03-02T14:14:55;6.93;;;3.70;;
62574;SDS011;76945;45.630;11.704;2024-03-02T14:17:23;7.05;;;4.38;;
62574;SDS011;76945;45.630;11.704;2024-03-02T14:19:49;7.93;;;4.32;;
62574;SDS011;76945;45.630;11.704;2024-03-02T14:22:15;7.50;;;4.30;;
62574;SDS011;76945;45.630;11.704;2024-03-02T14:24:42;8.10;;;4.57;;
62574;SDS011;76945;45.630;11.704;2024-03-02T14:27:08;7.57;;;4.30;;
62574;SDS011;76945;45.630;11.704;2024-03-02T14:29:34;7.15;;;4.32;;
62574;SDS011;76945;45.630;11.704;2024-03-02T14:32:02;6.22;;;3.78;;
62574;SDS011;76945;45.630;11.704;2024-03-02T14:34:28;8.35;;;4.22;;
62574;SDS011;76945;45.630;11.704;2024-03-02T14:36:54;11.55;;;5.43;;
62574;SDS011;76945;45.630;11.704;2024-03-02T14:39:20;7.65;;;4.40;;
62574;SDS011;76945;45.630;11.704;2024-03-02T14:41:46;9.95;;;5.43;;
62574;SDS011;76945;45.630;11.704;2024-03-02T14:44:12;8.38;;;5.15;;
62574;SDS011;76945;45.630;11.704;2024-03-02T14:46:37;9.88;;;5.40;;
62574;SDS011;76945;45.630;11.704;2024-03-02T14:49:03;8.10;;;4.90;;
62574;SDS011;76945;45.630;11.704;2024-03-02T14:51:29;8.65;;;4.70;;